sensor_id;sensor_type;location;lat;lon;timestamp;P1;durP1;ratioP1;P2;durP2;ratioP2
73428;SDS011;61643;49.564;17.412;2023-03-24T00:00:18;7.72;;;3.17;;
73428;SDS011;61643;49.564;17.412;2023-03-24T00:02:46;5.65;;;3.35;;
73428;SDS011;61643;49.564;17.412;2023-03-24T00:05:15;4.63;;;3.30;;
73428;SDS011;61643;49.564;17.412;2023-03-24T00:07:43;7.80;;;3.55;;
73428;SDS011;61643;49.564;17.412;2023-03-24T00:10:11;7.90;;;3.45;;
73428;SDS011;61643;49.564;17.412;2023-03-24T00:12:39;6.28;;;3.45;;
73428;SDS011;61643;49.564;17.412;2023-03-24T00:15:11;4.22;;;3.20;;
73428;SDS011;61643;49.564;17.412;2023-03-24T00:17:39;5.55;;;3.53;;
73428;SDS011;61643;49.564;17.412;2023-03-24T00:20:06;8.40;;;4.03;;
73428;SDS011;61643;49.564;17.412;2023-03-24T00:25:19;7.82;;;4.20;;
73428;SDS011;61643;49.564;17.412;2023-03-24T00:27:53;6.30;;;4.25;;
73428;SDS011;61643;49.564;17.412;2023-03-24T00:30:19;8.35;;;4.53;;
73428;SDS011;61643;49.564;17.412;2023-03-24T00:32:47;7.55;;;4.80;;
73428;SDS011;61643;49.564;17.412;2023-03-24T00:35:13;7.75;;;4.43;;
73428;SDS011;61643;49.564;17.412;2023-03-24T00:37:41;8.32;;;4.63;;
73428;SDS011;61643;49.564;17.412;2023-03-24T00:40:13;9.00;;;4.78;;
73428;SDS011;61643;49.564;17.412;2023-03-24T00:42:41;6.28;;;4.50;;
73428;SDS011;61643;49.564;17.412;2023-03-24T00:45:15;9.65;;;5.15;;
73428;SDS011;61643;49.564;17.412;2023-03-24T00:47:44;7.35;;;4.72;;
73428;SDS011;61643;49.564;17.412;2023-03-24T00:50:12;8.25;;;4.57;;
73428;SDS011;61643;49.564;17.412;2023-03-24T00:52:40;10.18;;;4.80;;
73428;SDS011;61643;49.564;17.412;2023-03-24T00:55:09;7.35;;;4.60;;
73428;SDS011;61643;49.564;17.412;2023-03-24T00:57:40;10.02;;;4.55;;
73428;SDS011;61643;49.564;17.412;2023-03-24T01:00:20;8.15;;;5.03;;
73428;SDS011;61643;49.564;17.412;2023-03-24T01:02:49;9.32;;;5.65;;
73428;SDS011;61643;49.564;17.412;2023-03-24T01:05:27;7.57;;;5.50;;
73428;SDS011;61643;49.564;17.412;2023-03-24T01:07:55;9.30;;;5.93;;
73428;SDS011;61643;49.564;17.412;2023-03-24T01:10:23;10.07;;;6.15;;
73428;SDS011;61643;49.564;17.412;2023-03-24T01:12:51;9.45;;;5.97;;
73428;SDS011;61643;49.564;17.412;2023-03-24T01:15:20;10.45;;;5.97;;
73428;SDS011;61643;49.564;17.412;2023-03-24T01:17:49;10.80;;;6.43;;
73428;SDS011;61643;49.564;17.412;2023-03-24T01:20:17;14.00;;;6.70;;
73428;SDS011;61643;49.564;17.412;2023-03-24T01:22:44;14.95;;;7.50;;
73428;SDS011;61643;49.564;17.412;2023-03-24T01:25:11;11.07;;;7.10;;
73428;SDS011;61643;49.564;17.412;2023-03-24T01:27:42;15.23;;;7.90;;
73428;SDS011;61643;49.564;17.412;2023-03-24T01:30:10;15.70;;;7.93;;
73428;SDS011;61643;49.564;17.412;2023-03-24T01:32:38;13.85;;;7.85;;
73428;SDS011;61643;49.564;17.412;2023-03-24T01:35:05;12.02;;;7.35;;
73428;SDS011;61643;49.564;17.412;2023-03-24T01:37:31;12.68;;;7.15;;
73428;SDS011;61643;49.564;17.412;2023-03-24T01:39:57;14.77;;;7.28;;
73428;SDS011;61643;49.564;17.412;2023-03-24T01:42:24;13.57;;;7.93;;
73428;SDS011;61643;49.564;17.412;2023-03-24T01:44:58;14.40;;;8.48;;
73428;SDS011;61643;49.564;17.412;2023-03-24T01:47:47;17.55;;;8.52;;
73428;SDS011;61643;49.564;17.412;2023-03-24T01:50:14;17.55;;;8.75;;
73428;SDS011;61643;49.564;17.412;2023-03-24T01:52:40;17.48;;;9.60;;
73428;SDS011;61643;49.564;17.412;2023-03-24T01:55:11;16.95;;;10.20;;
73428;SDS011;61643;49.564;17.412;2023-03-24T01:57:44;17.52;;;9.73;;
73428;SDS011;61643;49.564;17.412;2023-03-24T02:00:14;17.20;;;9.43;;
73428;SDS011;61643;49.564;17.412;2023-03-24T02:02:44;14.23;;;9.23;;
73428;SDS011;61643;49.564;17.412;2023-03-24T02:05:13;17.27;;;9.13;;
73428;SDS011;61643;49.564;17.412;2023-03-24T02:10:18;16.30;;;9.63;;
73428;SDS011;61643;49.564;17.412;2023-03-24T02:12:44;22.50;;;9.32;;
73428;SDS011;61643;49.564;17.412;2023-03-24T02:15:12;12.75;;;8.55;;
73428;SDS011;61643;49.564;17.412;2023-03-24T02:26:13;17.40;;;10.02;;
73428;SDS011;61643;49.564;17.412;2023-03-24T02:29:34;18.92;;;9.90;;
73428;SDS011;61643;49.564;17.412;2023-03-24T02:31:58;16.13;;;9.68;;
73428;SDS011;61643;49.564;17.412;2023-03-24T02:34:52;16.45;;;9.27;;
73428;SDS011;61643;49.564;17.412;2023-03-24T02:48:13;13.85;;;8.13;;
73428;SDS011;61643;49.564;17.412;2023-03-24T02:53:53;14.88;;;8.05;;
73428;SDS011;61643;49.564;17.412;2023-03-24T02:59:08;20.05;;;9.80;;
73428;SDS011;61643;49.564;17.412;2023-03-24T03:02:04;13.75;;;8.23;;
73428;SDS011;61643;49.564;17.412;2023-03-24T03:04:43;16.90;;;8.35;;
73428;SDS011;61643;49.564;17.412;2023-03-24T03:07:14;15.95;;;7.30;;
73428;SDS011;61643;49.564;17.412;2023-03-24T03:09:48;14.43;;;8.52;;
73428;SDS011;61643;49.564;17.412;2023-03-24T03:12:22;14.23;;;8.18;;
73428;SDS011;61643;49.564;17.412;2023-03-24T03:14:53;15.32;;;8.02;;
73428;SDS011;61643;49.564;17.412;2023-03-24T03:17:26;15.55;;;8.48;;
73428;SDS011;61643;49.564;17.412;2023-03-24T03:20:01;11.98;;;7.30;;
73428;SDS011;61643;49.564;17.412;2023-03-24T03:22:37;12.35;;;7.07;;
73428;SDS011;61643;49.564;17.412;2023-03-24T03:25:08;13.88;;;7.45;;
73428;SDS011;61643;49.564;17.412;2023-03-24T03:27:37;13.43;;;7.25;;
73428;SDS011;61643;49.564;17.412;2023-03-24T03:30:16;13.75;;;7.88;;
73428;SDS011;61643;49.564;17.412;2023-03-24T03:32:51;14.05;;;7.82;;
73428;SDS011;61643;49.564;17.412;2023-03-24T03:35:32;11.85;;;7.72;;
73428;SDS011;61643;49.564;17.412;2023-03-24T03:38:13;14.70;;;7.70;;
73428;SDS011;61643;49.564;17.412;2023-03-24T03:40:46;12.50;;;7.75;;
73428;SDS011;61643;49.564;17.412;2023-03-24T03:43:14;11.85;;;7.35;;
73428;SDS011;61643;49.564;17.412;2023-03-24T03:45:41;13.60;;;7.60;;
73428;SDS011;61643;49.564;17.412;2023-03-24T03:48:07;11.73;;;7.30;;
73428;SDS011;61643;49.564;17.412;2023-03-24T03:50:33;12.73;;;7.47;;
73428;SDS011;61643;49.564;17.412;2023-03-24T03:52:59;13.15;;;7.55;;
73428;SDS011;61643;49.564;17.412;2023-03-24T03:55:25;11.73;;;7.13;;
73428;SDS011;61643;49.564;17.412;2023-03-24T03:57:52;12.82;;;7.47;;
73428;SDS011;61643;49.564;17.412;2023-03-24T04:00:19;12.25;;;7.47;;
73428;SDS011;61643;49.564;17.412;2023-03-24T04:05:26;13.32;;;7.32;;
73428;SDS011;61643;49.564;17.412;2023-03-24T04:10:53;12.75;;;7.00;;
73428;SDS011;61643;49.564;17.412;2023-03-24T04:16:21;14.07;;;7.07;;
73428;SDS011;61643;49.564;17.412;2023-03-24T04:27:02;14.65;;;7.43;;
73428;SDS011;61643;49.564;17.412;2023-03-24T04:30:09;13.70;;;7.07;;
73428;SDS011;61643;49.564;17.412;2023-03-24T04:35:32;15.30;;;7.70;;
73428;SDS011;61643;49.564;17.412;2023-03-24T04:38:08;11.43;;;6.63;;
73428;SDS011;61643;49.564;17.412;2023-03-24T04:40:39;11.68;;;7.30;;
73428;SDS011;61643;49.564;17.412;2023-03-24T04:43:08;19.85;;;10.98;;
73428;SDS011;61643;49.564;17.412;2023-03-24T04:45:38;19.45;;;10.65;;
73428;SDS011;61643;49.564;17.412;2023-03-24T04:48:06;12.93;;;8.70;;
73428;SDS011;61643;49.564;17.412;2023-03-24T04:50:36;14.40;;;7.35;;
73428;SDS011;61643;49.564;17.412;2023-03-24T04:53:05;13.15;;;7.57;;
73428;SDS011;61643;49.564;17.412;2023-03-24T04:58:14;11.95;;;6.68;;
73428;SDS011;61643;49.564;17.412;2023-03-24T05:00:41;9.43;;;6.43;;
73428;SDS011;61643;49.564;17.412;2023-03-24T05:03:09;11.25;;;6.65;;
73428;SDS011;61643;49.564;17.412;2023-03-24T05:05:39;12.73;;;7.60;;
73428;SDS011;61643;49.564;17.412;2023-03-24T05:08:06;14.30;;;7.68;;
73428;SDS011;61643;49.564;17.412;2023-03-24T05:10:33;13.60;;;6.72;;
73428;SDS011;61643;49.564;17.412;2023-03-24T05:13:00;13.10;;;7.07;;
73428;SDS011;61643;49.564;17.412;2023-03-24T05:15:27;13.50;;;7.38;;
73428;SDS011;61643;49.564;17.412;2023-03-24T05:17:53;12.93;;;7.38;;
73428;SDS011;61643;49.564;17.412;2023-03-24T05:20:19;12.65;;;7.82;;
73428;SDS011;61643;49.564;17.412;2023-03-24T05:22:45;13.07;;;7.07;;
73428;SDS011;61643;49.564;17.412;2023-03-24T05:25:11;13.75;;;7.20;;
73428;SDS011;61643;49.564;17.412;2023-03-24T05:27:37;12.35;;;7.50;;
73428;SDS011;61643;49.564;17.412;2023-03-24T05:30:04;12.77;;;7.05;;
73428;SDS011;61643;49.564;17.412;2023-03-24T05:32:30;12.18;;;6.82;;
73428;SDS011;61643;49.564;17.412;2023-03-24T05:34:56;12.35;;;7.25;;
73428;SDS011;61643;49.564;17.412;2023-03-24T05:37:22;12.60;;;7.32;;
73428;SDS011;61643;49.564;17.412;2023-03-24T05:39:48;10.77;;;7.13;;
73428;SDS011;61643;49.564;17.412;2023-03-24T05:42:15;13.00;;;7.20;;
73428;SDS011;61643;49.564;17.412;2023-03-24T05:44:42;12.02;;;6.72;;
73428;SDS011;61643;49.564;17.412;2023-03-24T05:47:08;10.55;;;6.70;;
73428;SDS011;61643;49.564;17.412;2023-03-24T05:49:34;13.35;;;7.07;;
73428;SDS011;61643;49.564;17.412;2023-03-24T05:52:01;10.50;;;6.65;;
73428;SDS011;61643;49.564;17.412;2023-03-24T05:54:27;13.43;;;7.70;;
73428;SDS011;61643;49.564;17.412;2023-03-24T05:56:53;14.75;;;7.00;;
73428;SDS011;61643;49.564;17.412;2023-03-24T05:59:19;12.50;;;7.45;;
73428;SDS011;61643;49.564;17.412;2023-03-24T06:01:45;13.65;;;7.93;;
73428;SDS011;61643;49.564;17.412;2023-03-24T06:04:12;14.90;;;8.38;;
73428;SDS011;61643;49.564;17.412;2023-03-24T06:06:38;13.98;;;8.15;;
73428;SDS011;61643;49.564;17.412;2023-03-24T06:09:05;13.38;;;7.47;;
73428;SDS011;61643;49.564;17.412;2023-03-24T06:11:31;12.32;;;8.02;;
73428;SDS011;61643;49.564;17.412;2023-03-24T06:13:57;14.48;;;8.13;;
73428;SDS011;61643;49.564;17.412;2023-03-24T06:16:25;14.05;;;8.13;;
73428;SDS011;61643;49.564;17.412;2023-03-24T06:18:51;15.85;;;8.75;;
73428;SDS011;61643;49.564;17.412;2023-03-24T06:21:19;12.52;;;8.23;;
73428;SDS011;61643;49.564;17.412;2023-03-24T06:23:46;12.77;;;8.32;;
73428;SDS011;61643;49.564;17.412;2023-03-24T06:26:12;14.07;;;8.43;;
73428;SDS011;61643;49.564;17.412;2023-03-24T06:28:39;14.40;;;8.27;;
73428;SDS011;61643;49.564;17.412;2023-03-24T06:31:07;13.88;;;8.43;;
73428;SDS011;61643;49.564;17.412;2023-03-24T06:33:40;14.02;;;8.23;;
73428;SDS011;61643;49.564;17.412;2023-03-24T06:36:07;13.20;;;8.68;;
73428;SDS011;61643;49.564;17.412;2023-03-24T06:38:34;14.18;;;8.63;;
73428;SDS011;61643;49.564;17.412;2023-03-24T06:41:00;12.98;;;7.85;;
73428;SDS011;61643;49.564;17.412;2023-03-24T06:43:27;14.88;;;8.57;;
73428;SDS011;61643;49.564;17.412;2023-03-24T06:45:53;13.85;;;8.32;;
73428;SDS011;61643;49.564;17.412;2023-03-24T06:48:19;12.55;;;8.45;;
73428;SDS011;61643;49.564;17.412;2023-03-24T06:50:45;13.93;;;8.13;;
73428;SDS011;61643;49.564;17.412;2023-03-24T06:53:11;11.52;;;7.55;;
73428;SDS011;61643;49.564;17.412;2023-03-24T06:55:37;12.73;;;7.70;;
73428;SDS011;61643;49.564;17.412;2023-03-24T06:58:03;11.43;;;7.85;;
73428;SDS011;61643;49.564;17.412;2023-03-24T07:00:29;11.65;;;7.70;;
73428;SDS011;61643;49.564;17.412;2023-03-24T07:02:55;15.30;;;8.65;;
73428;SDS011;61643;49.564;17.412;2023-03-24T07:05:21;14.05;;;8.07;;
73428;SDS011;61643;49.564;17.412;2023-03-24T07:07:48;12.98;;;7.55;;
73428;SDS011;61643;49.564;17.412;2023-03-24T07:10:17;14.05;;;7.95;;
73428;SDS011;61643;49.564;17.412;2023-03-24T07:12:44;13.23;;;8.48;;
73428;SDS011;61643;49.564;17.412;2023-03-24T07:15:10;15.65;;;8.55;;
73428;SDS011;61643;49.564;17.412;2023-03-24T07:17:36;13.20;;;8.18;;
73428;SDS011;61643;49.564;17.412;2023-03-24T07:20:02;15.25;;;9.15;;
73428;SDS011;61643;49.564;17.412;2023-03-24T07:22:33;17.35;;;8.95;;
73428;SDS011;61643;49.564;17.412;2023-03-24T07:25:01;13.57;;;8.70;;
73428;SDS011;61643;49.564;17.412;2023-03-24T07:27:32;15.60;;;9.02;;
73428;SDS011;61643;49.564;17.412;2023-03-24T07:29:59;18.48;;;9.05;;
73428;SDS011;61643;49.564;17.412;2023-03-24T07:32:28;15.05;;;9.27;;
73428;SDS011;61643;49.564;17.412;2023-03-24T07:34:55;15.95;;;10.15;;
73428;SDS011;61643;49.564;17.412;2023-03-24T07:37:22;15.30;;;9.38;;
73428;SDS011;61643;49.564;17.412;2023-03-24T07:39:48;15.52;;;8.85;;
73428;SDS011;61643;49.564;17.412;2023-03-24T07:42:14;17.67;;;9.20;;
73428;SDS011;61643;49.564;17.412;2023-03-24T07:44:41;22.67;;;9.38;;
73428;SDS011;61643;49.564;17.412;2023-03-24T07:47:07;15.25;;;9.30;;
73428;SDS011;61643;49.564;17.412;2023-03-24T07:49:33;18.98;;;10.70;;
73428;SDS011;61643;49.564;17.412;2023-03-24T07:51:58;14.70;;;9.40;;
73428;SDS011;61643;49.564;17.412;2023-03-24T07:54:26;14.52;;;9.00;;
73428;SDS011;61643;49.564;17.412;2023-03-24T07:56:52;15.25;;;9.00;;
73428;SDS011;61643;49.564;17.412;2023-03-24T07:59:18;15.73;;;8.23;;
73428;SDS011;61643;49.564;17.412;2023-03-24T08:01:44;13.95;;;8.38;;
73428;SDS011;61643;49.564;17.412;2023-03-24T08:04:10;12.27;;;8.05;;
73428;SDS011;61643;49.564;17.412;2023-03-24T08:06:37;13.70;;;7.80;;
73428;SDS011;61643;49.564;17.412;2023-03-24T08:09:03;13.77;;;8.07;;
73428;SDS011;61643;49.564;17.412;2023-03-24T08:11:29;13.05;;;7.60;;
73428;SDS011;61643;49.564;17.412;2023-03-24T08:13:55;12.32;;;8.20;;
73428;SDS011;61643;49.564;17.412;2023-03-24T08:16:22;11.40;;;7.53;;
73428;SDS011;61643;49.564;17.412;2023-03-24T08:18:49;12.63;;;7.55;;
73428;SDS011;61643;49.564;17.412;2023-03-24T08:21:15;13.18;;;7.82;;
73428;SDS011;61643;49.564;17.412;2023-03-24T08:23:41;11.98;;;7.35;;
73428;SDS011;61643;49.564;17.412;2023-03-24T08:26:07;13.35;;;7.05;;
73428;SDS011;61643;49.564;17.412;2023-03-24T08:28:35;11.50;;;6.70;;
73428;SDS011;61643;49.564;17.412;2023-03-24T08:31:02;10.88;;;6.97;;
73428;SDS011;61643;49.564;17.412;2023-03-24T08:33:29;11.38;;;6.78;;
73428;SDS011;61643;49.564;17.412;2023-03-24T08:35:55;13.00;;;7.20;;
73428;SDS011;61643;49.564;17.412;2023-03-24T08:38:22;12.70;;;7.55;;
73428;SDS011;61643;49.564;17.412;2023-03-24T08:40:55;10.75;;;7.03;;
73428;SDS011;61643;49.564;17.412;2023-03-24T08:43:23;12.93;;;7.35;;
73428;SDS011;61643;49.564;17.412;2023-03-24T08:45:50;10.65;;;6.68;;
73428;SDS011;61643;49.564;17.412;2023-03-24T08:48:16;11.82;;;7.13;;
73428;SDS011;61643;49.564;17.412;2023-03-24T08:50:42;8.82;;;6.35;;
73428;SDS011;61643;49.564;17.412;2023-03-24T08:53:08;14.40;;;7.60;;
73428;SDS011;61643;49.564;17.412;2023-03-24T08:58:06;14.25;;;6.57;;
73428;SDS011;61643;49.564;17.412;2023-03-24T09:00:32;11.48;;;6.38;;
73428;SDS011;61643;49.564;17.412;2023-03-24T09:02:58;9.05;;;6.10;;
73428;SDS011;61643;49.564;17.412;2023-03-24T09:05:26;10.95;;;6.47;;
73428;SDS011;61643;49.564;17.412;2023-03-24T09:07:52;11.15;;;6.72;;
73428;SDS011;61643;49.564;17.412;2023-03-24T09:10:18;12.77;;;6.10;;
73428;SDS011;61643;49.564;17.412;2023-03-24T09:12:46;9.05;;;5.90;;
73428;SDS011;61643;49.564;17.412;2023-03-24T09:15:13;11.75;;;6.80;;
73428;SDS011;61643;49.564;17.412;2023-03-24T09:17:39;10.43;;;6.18;;
73428;SDS011;61643;49.564;17.412;2023-03-24T09:20:06;9.90;;;6.40;;
73428;SDS011;61643;49.564;17.412;2023-03-24T09:22:42;11.10;;;6.13;;
73428;SDS011;61643;49.564;17.412;2023-03-24T09:25:10;9.48;;;6.75;;
73428;SDS011;61643;49.564;17.412;2023-03-24T09:27:38;10.00;;;6.43;;
73428;SDS011;61643;49.564;17.412;2023-03-24T09:30:04;10.15;;;6.22;;
73428;SDS011;61643;49.564;17.412;2023-03-24T09:32:31;9.85;;;6.95;;
73428;SDS011;61643;49.564;17.412;2023-03-24T09:34:58;9.70;;;6.50;;
73428;SDS011;61643;49.564;17.412;2023-03-24T09:37:27;9.55;;;6.35;;
73428;SDS011;61643;49.564;17.412;2023-03-24T09:39:54;11.00;;;6.55;;
73428;SDS011;61643;49.564;17.412;2023-03-24T09:42:21;10.18;;;6.20;;
73428;SDS011;61643;49.564;17.412;2023-03-24T09:44:51;14.35;;;6.28;;
73428;SDS011;61643;49.564;17.412;2023-03-24T09:49:49;9.55;;;5.43;;
73428;SDS011;61643;49.564;17.412;2023-03-24T09:52:18;9.32;;;5.88;;
73428;SDS011;61643;49.564;17.412;2023-03-24T09:54:56;10.40;;;5.88;;
73428;SDS011;61643;49.564;17.412;2023-03-24T09:57:32;11.45;;;5.85;;
73428;SDS011;61643;49.564;17.412;2023-03-24T10:00:07;9.02;;;5.85;;
73428;SDS011;61643;49.564;17.412;2023-03-24T10:02:35;11.13;;;6.40;;
73428;SDS011;61643;49.564;17.412;2023-03-24T10:05:01;9.70;;;5.60;;
73428;SDS011;61643;49.564;17.412;2023-03-24T10:07:29;8.85;;;5.55;;
73428;SDS011;61643;49.564;17.412;2023-03-24T10:13:06;7.18;;;5.22;;
73428;SDS011;61643;49.564;17.412;2023-03-24T10:15:39;9.38;;;5.13;;
73428;SDS011;61643;49.564;17.412;2023-03-24T10:18:27;9.93;;;5.03;;
73428;SDS011;61643;49.564;17.412;2023-03-24T10:21:20;8.25;;;5.45;;
73428;SDS011;61643;49.564;17.412;2023-03-24T10:31:51;11.23;;;4.85;;
73428;SDS011;61643;49.564;17.412;2023-03-24T10:34:22;6.97;;;4.95;;
73428;SDS011;61643;49.564;17.412;2023-03-24T10:36:54;7.28;;;5.18;;
73428;SDS011;61643;49.564;17.412;2023-03-24T10:39:22;8.98;;;5.50;;
73428;SDS011;61643;49.564;17.412;2023-03-24T10:41:49;8.00;;;4.65;;
73428;SDS011;61643;49.564;17.412;2023-03-24T10:44:17;6.88;;;4.20;;
73428;SDS011;61643;49.564;17.412;2023-03-24T10:46:54;6.90;;;3.80;;
73428;SDS011;61643;49.564;17.412;2023-03-24T10:49:23;7.32;;;3.88;;
73428;SDS011;61643;49.564;17.412;2023-03-24T10:51:53;9.77;;;4.82;;
73428;SDS011;61643;49.564;17.412;2023-03-24T10:54:27;10.65;;;4.93;;
73428;SDS011;61643;49.564;17.412;2023-03-24T10:59:27;6.80;;;4.38;;
73428;SDS011;61643;49.564;17.412;2023-03-24T11:01:57;7.90;;;4.38;;
73428;SDS011;61643;49.564;17.412;2023-03-24T11:04:25;7.25;;;4.32;;
73428;SDS011;61643;49.564;17.412;2023-03-24T11:07:05;6.63;;;3.95;;
73428;SDS011;61643;49.564;17.412;2023-03-24T11:09:42;6.88;;;4.10;;
73428;SDS011;61643;49.564;17.412;2023-03-24T11:12:19;6.72;;;3.90;;
73428;SDS011;61643;49.564;17.412;2023-03-24T11:14:47;7.20;;;4.53;;
73428;SDS011;61643;49.564;17.412;2023-03-24T11:17:13;6.93;;;4.38;;
73428;SDS011;61643;49.564;17.412;2023-03-24T11:19:53;6.68;;;4.35;;
73428;SDS011;61643;49.564;17.412;2023-03-24T11:22:21;6.50;;;3.92;;
73428;SDS011;61643;49.564;17.412;2023-03-24T11:24:51;6.82;;;4.20;;
73428;SDS011;61643;49.564;17.412;2023-03-24T11:27:20;11.30;;;4.05;;
73428;SDS011;61643;49.564;17.412;2023-03-24T11:29:48;6.22;;;4.20;;
73428;SDS011;61643;49.564;17.412;2023-03-24T11:32:20;5.75;;;4.00;;
73428;SDS011;61643;49.564;17.412;2023-03-24T11:34:50;7.72;;;3.92;;
73428;SDS011;61643;49.564;17.412;2023-03-24T11:37:46;5.70;;;3.95;;
73428;SDS011;61643;49.564;17.412;2023-03-24T11:42:43;5.28;;;3.90;;
73428;SDS011;61643;49.564;17.412;2023-03-24T11:48:09;7.80;;;4.03;;
73428;SDS011;61643;49.564;17.412;2023-03-24T11:50:44;6.43;;;3.80;;
73428;SDS011;61643;49.564;17.412;2023-03-24T11:58:26;7.00;;;3.92;;
73428;SDS011;61643;49.564;17.412;2023-03-24T12:14:27;7.65;;;3.97;;
73428;SDS011;61643;49.564;17.412;2023-03-24T12:20:20;7.55;;;3.80;;
73428;SDS011;61643;49.564;17.412;2023-03-24T12:22:46;5.97;;;3.83;;
73428;SDS011;61643;49.564;17.412;2023-03-24T12:25:28;7.13;;;3.75;;
73428;SDS011;61643;49.564;17.412;2023-03-24T12:40:25;7.40;;;3.90;;
73428;SDS011;61643;49.564;17.412;2023-03-24T12:46:03;5.45;;;3.72;;
73428;SDS011;61643;49.564;17.412;2023-03-24T12:59:09;6.28;;;4.22;;
73428;SDS011;61643;49.564;17.412;2023-03-24T13:04:59;7.38;;;4.10;;
73428;SDS011;61643;49.564;17.412;2023-03-24T13:07:34;6.57;;;3.95;;
73428;SDS011;61643;49.564;17.412;2023-03-24T13:12:43;12.50;;;4.22;;
73428;SDS011;61643;49.564;17.412;2023-03-24T13:23:22;5.90;;;4.53;;
73428;SDS011;61643;49.564;17.412;2023-03-24T13:26:01;6.13;;;4.50;;
73428;SDS011;61643;49.564;17.412;2023-03-24T13:28:32;7.40;;;4.55;;
73428;SDS011;61643;49.564;17.412;2023-03-24T13:31:05;8.98;;;5.00;;
73428;SDS011;61643;49.564;17.412;2023-03-24T13:33:34;8.60;;;5.03;;
73428;SDS011;61643;49.564;17.412;2023-03-24T13:38:47;7.60;;;5.13;;
73428;SDS011;61643;49.564;17.412;2023-03-24T13:41:18;7.63;;;5.03;;
73428;SDS011;61643;49.564;17.412;2023-03-24T13:43:49;8.57;;;5.38;;
73428;SDS011;61643;49.564;17.412;2023-03-24T13:46:21;7.47;;;5.00;;
73428;SDS011;61643;49.564;17.412;2023-03-24T13:48:55;10.07;;;5.53;;
73428;SDS011;61643;49.564;17.412;2023-03-24T13:51:29;10.07;;;5.13;;
73428;SDS011;61643;49.564;17.412;2023-03-24T13:54:03;7.88;;;5.15;;
73428;SDS011;61643;49.564;17.412;2023-03-24T13:59:27;7.75;;;4.95;;
73428;SDS011;61643;49.564;17.412;2023-03-24T14:13:00;9.10;;;5.10;;
73428;SDS011;61643;49.564;17.412;2023-03-24T14:15:39;8.02;;;5.70;;
73428;SDS011;61643;49.564;17.412;2023-03-24T14:23:22;9.63;;;5.68;;
73428;SDS011;61643;49.564;17.412;2023-03-24T14:25:58;8.48;;;5.45;;
73428;SDS011;61643;49.564;17.412;2023-03-24T14:28:32;8.27;;;5.65;;
73428;SDS011;61643;49.564;17.412;2023-03-24T14:33:44;10.85;;;5.43;;
73428;SDS011;61643;49.564;17.412;2023-03-24T14:36:36;9.07;;;5.47;;
73428;SDS011;61643;49.564;17.412;2023-03-24T14:39:06;10.10;;;5.55;;
73428;SDS011;61643;49.564;17.412;2023-03-24T14:41:47;8.00;;;5.20;;
73428;SDS011;61643;49.564;17.412;2023-03-24T14:47:13;8.57;;;5.72;;
73428;SDS011;61643;49.564;17.412;2023-03-24T14:49:51;9.05;;;5.65;;
73428;SDS011;61643;49.564;17.412;2023-03-24T14:54:59;10.38;;;5.95;;
73428;SDS011;61643;49.564;17.412;2023-03-24T14:57:34;8.85;;;5.75;;
73428;SDS011;61643;49.564;17.412;2023-03-24T15:00:16;8.45;;;6.00;;
73428;SDS011;61643;49.564;17.412;2023-03-24T15:05:48;11.88;;;5.95;;
73428;SDS011;61643;49.564;17.412;2023-03-24T15:08:21;9.88;;;6.28;;
73428;SDS011;61643;49.564;17.412;2023-03-24T15:10:55;10.90;;;6.38;;
73428;SDS011;61643;49.564;17.412;2023-03-24T15:21:40;9.43;;;5.90;;
73428;SDS011;61643;49.564;17.412;2023-03-24T15:26:47;4.03;;;3.20;;
73428;SDS011;61643;49.564;17.412;2023-03-24T15:29:21;5.47;;;2.72;;
73428;SDS011;61643;49.564;17.412;2023-03-24T15:31:48;3.20;;;2.30;;
73428;SDS011;61643;49.564;17.412;2023-03-24T15:34:28;5.57;;;3.08;;
73428;SDS011;61643;49.564;17.412;2023-03-24T15:37:00;4.32;;;3.03;;
73428;SDS011;61643;49.564;17.412;2023-03-24T15:39:31;5.95;;;3.45;;
73428;SDS011;61643;49.564;17.412;2023-03-24T15:41:59;8.25;;;3.47;;
73428;SDS011;61643;49.564;17.412;2023-03-24T15:44:26;5.68;;;4.05;;
73428;SDS011;61643;49.564;17.412;2023-03-24T15:46:57;6.40;;;4.32;;
73428;SDS011;61643;49.564;17.412;2023-03-24T15:49:31;7.90;;;5.00;;
73428;SDS011;61643;49.564;17.412;2023-03-24T15:54:30;8.68;;;5.70;;
73428;SDS011;61643;49.564;17.412;2023-03-24T15:59:45;9.75;;;5.97;;
73428;SDS011;61643;49.564;17.412;2023-03-24T16:02:24;14.25;;;6.72;;
73428;SDS011;61643;49.564;17.412;2023-03-24T16:04:53;10.30;;;6.20;;
73428;SDS011;61643;49.564;17.412;2023-03-24T16:07:24;8.38;;;6.25;;
73428;SDS011;61643;49.564;17.412;2023-03-24T16:09:59;10.30;;;6.60;;
73428;SDS011;61643;49.564;17.412;2023-03-24T16:12:33;11.38;;;6.88;;
73428;SDS011;61643;49.564;17.412;2023-03-24T16:15:01;11.13;;;6.93;;
73428;SDS011;61643;49.564;17.412;2023-03-24T16:17:30;10.60;;;6.38;;
73428;SDS011;61643;49.564;17.412;2023-03-24T16:19:57;10.38;;;6.82;;
73428;SDS011;61643;49.564;17.412;2023-03-24T16:22:23;12.75;;;7.45;;
73428;SDS011;61643;49.564;17.412;2023-03-24T16:24:49;15.07;;;7.50;;
73428;SDS011;61643;49.564;17.412;2023-03-24T16:27:15;14.13;;;7.80;;
73428;SDS011;61643;49.564;17.412;2023-03-24T16:29:41;11.07;;;7.50;;
73428;SDS011;61643;49.564;17.412;2023-03-24T16:32:08;20.70;;;13.18;;
73428;SDS011;61643;49.564;17.412;2023-03-24T16:34:34;14.25;;;9.45;;
73428;SDS011;61643;49.564;17.412;2023-03-24T16:37:01;14.85;;;9.02;;
73428;SDS011;61643;49.564;17.412;2023-03-24T16:39:28;16.90;;;10.25;;
73428;SDS011;61643;49.564;17.412;2023-03-24T16:41:55;12.18;;;8.13;;
73428;SDS011;61643;49.564;17.412;2023-03-24T16:44:22;14.77;;;8.23;;
73428;SDS011;61643;49.564;17.412;2023-03-24T16:46:51;13.38;;;7.95;;
73428;SDS011;61643;49.564;17.412;2023-03-24T16:49:18;14.68;;;8.73;;
73428;SDS011;61643;49.564;17.412;2023-03-24T16:51:45;10.38;;;7.63;;
73428;SDS011;61643;49.564;17.412;2023-03-24T16:54:11;8.95;;;5.93;;
73428;SDS011;61643;49.564;17.412;2023-03-24T16:56:37;9.98;;;5.97;;
73428;SDS011;61643;49.564;17.412;2023-03-24T16:59:04;10.82;;;6.18;;
73428;SDS011;61643;49.564;17.412;2023-03-24T17:01:34;7.75;;;5.57;;
73428;SDS011;61643;49.564;17.412;2023-03-24T17:04:03;9.40;;;6.32;;
73428;SDS011;61643;49.564;17.412;2023-03-24T17:06:34;16.58;;;11.32;;
73428;SDS011;61643;49.564;17.412;2023-03-24T17:09:02;12.38;;;9.07;;
73428;SDS011;61643;49.564;17.412;2023-03-24T17:11:31;12.23;;;8.20;;
73428;SDS011;61643;49.564;17.412;2023-03-24T17:13:59;7.45;;;4.72;;
73428;SDS011;61643;49.564;17.412;2023-03-24T17:16:37;13.55;;;7.18;;
73428;SDS011;61643;49.564;17.412;2023-03-24T17:19:14;12.77;;;6.88;;
73428;SDS011;61643;49.564;17.412;2023-03-24T17:21:47;11.50;;;7.18;;
73428;SDS011;61643;49.564;17.412;2023-03-24T17:24:17;7.22;;;4.25;;
73428;SDS011;61643;49.564;17.412;2023-03-24T17:26:45;7.25;;;5.05;;
73428;SDS011;61643;49.564;17.412;2023-03-24T17:29:11;6.78;;;4.00;;
73428;SDS011;61643;49.564;17.412;2023-03-24T17:31:38;4.90;;;3.55;;
73428;SDS011;61643;49.564;17.412;2023-03-24T17:34:04;4.65;;;3.60;;
73428;SDS011;61643;49.564;17.412;2023-03-24T17:36:31;4.20;;;2.95;;
73428;SDS011;61643;49.564;17.412;2023-03-24T17:38:56;5.00;;;3.25;;
73428;SDS011;61643;49.564;17.412;2023-03-24T17:41:22;6.70;;;2.80;;
73428;SDS011;61643;49.564;17.412;2023-03-24T17:43:48;3.60;;;2.72;;
73428;SDS011;61643;49.564;17.412;2023-03-24T17:46:15;3.75;;;2.45;;
73428;SDS011;61643;49.564;17.412;2023-03-24T17:48:41;3.22;;;2.08;;